»·PEaware :: UAL870 YSSY-KSFO

UAL870 :: YSSY-KSFO

FLIGHT INFORMATION

Flight Status: Arrived
Operator:
United Airlines
More flights by this operator :: More flights under this callsign
Pilot: Thomas C. (28508)
Aircraft: Unknown
(B77W)
More flights by this aircraft type
Origin: YSSY Kingsford Smith Intl
Australia
Destination: KSFO San Francisco Intl
United States
More flights between these airports :: More routes between these airports
Route: +WOL2 WOL MARLN NOBAR B580 MISLY/N0495F310 B580 BOILS/N0499F330 05N170W 13N160W/N0490F350 19N150W 23N145W 27N140W 30N135W/N0479F370 33N130W CINNY PIRAT2
File this flight plan on PilotEdge
Remarks: PBN / A1B1C1D1L1O1S2 NAV / RNVD1E2A1 DOF / 200402 REG / N2639U EET / YMMM0000 YBBB0017 NFFF0200 KZAK0457 05N170W0634 13N160W0800 19N150W0913 23N145W0953 27N140W1035 30N135W1112 33N130W1150 KZOA1221 SEL / DHBK OPR / UAL PER / D RALT / PKMJ PHTO KMRY RMK / TCAS
Altitude:
(Current/Filed)
29,000ft
Speed:
(Current/Filed)
497kts
Departed: 02-Apr-20 12:41 PM
Arrived: 02-Apr-20 02:26 PM
Distance/Time
Traveled:
6447nm/1:45
Distance/Time
To Go:
Arrived

Flight Plot

Page will automatically refresh every two minutes.


Map Options




Map Legend


Flown Route
Filed Route
Departure Airport
Arrival Airport
Navaid (VOR, NDB)
Fix

Horizontal Profiles

Position Reports

Time Latitude Longitude Heading Altitude Ground
Speed
02-Apr-20 12:39 29.897469 -135.181137 55 35155ft 523kts
02-Apr-20 12:40 29.976825 -135.041005 55 35157ft 522kts
02-Apr-20 12:41 30.060778 -134.904686 51 35158ft 522kts
02-Apr-20 12:42 30.146879 -134.769468 51 35157ft 522kts
02-Apr-20 12:43 30.232464 -134.634537 51 35159ft 522kts
02-Apr-20 12:44 30.318174 -134.498952 51 35160ft 522kts
02-Apr-20 12:45 30.403757 -134.363110 51 35162ft 522kts
02-Apr-20 12:46 30.489024 -134.227307 52 35154ft 522kts
02-Apr-20 12:47 30.574375 -134.090907 52 35155ft 522kts
02-Apr-20 12:48 30.659338 -133.954661 52 35157ft 523kts
02-Apr-20 12:49 30.744529 -133.817579 52 35158ft 523kts
02-Apr-20 12:50 30.829311 -133.680681 52 35160ft 523kts
02-Apr-20 12:51 30.914105 -133.543288 52 35161ft 523kts
02-Apr-20 12:52 30.998748 -133.405660 52 35162ft 523kts
02-Apr-20 12:53 31.083468 -133.267436 52 35155ft 523kts
02-Apr-20 12:54 31.166878 -133.130855 52 35154ft 523kts
02-Apr-20 12:55 31.251494 -132.991817 52 35155ft 523kts
02-Apr-20 12:56 31.335348 -132.853541 52 35157ft 523kts
02-Apr-20 12:57 31.419412 -132.714424 52 35158ft 524kts
02-Apr-20 12:58 31.502033 -132.577271 52 35173ft 523kts
02-Apr-20 12:59 31.585640 -132.437857 52 35161ft 524kts
02-Apr-20 13:00 31.669298 -132.297927 53 35153ft 524kts
02-Apr-20 13:01 31.752845 -132.157655 53 35155ft 524kts
02-Apr-20 13:02 31.836274 -132.017079 53 35157ft 524kts
02-Apr-20 13:03 31.919468 -131.876383 53 35158ft 524kts
02-Apr-20 13:04 32.002614 -131.735249 53 35160ft 524kts
02-Apr-20 13:05 32.085324 -131.594337 53 35161ft 525kts
02-Apr-20 13:06 32.168121 -131.452764 53 35160ft 525kts
02-Apr-20 13:07 32.250926 -131.310651 53 35535ft 524kts
02-Apr-20 13:08 32.333336 -131.168659 53 36504ft 523kts
02-Apr-20 13:09 32.415529 -131.026523 53 37147ft 523kts
02-Apr-20 13:10 32.497327 -130.884538 53 37157ft 523kts
02-Apr-20 13:11 32.579175 -130.741926 53 37158ft 522kts
02-Apr-20 13:12 32.660595 -130.599521 53 37160ft 522kts
02-Apr-20 13:13 32.741683 -130.457158 53 37161ft 522kts
02-Apr-20 13:14 32.822987 -130.313883 54 37153ft 522kts
02-Apr-20 13:15 32.903808 -130.170890 54 37153ft 521kts
02-Apr-20 13:16 32.984303 -130.027936 54 37157ft 520kts
02-Apr-20 13:17 33.071291 -129.890461 50 37158ft 521kts
02-Apr-20 13:18 33.159799 -129.754220 50 37157ft 520kts
02-Apr-20 13:19 33.247907 -129.618010 50 37159ft 520kts
02-Apr-20 13:20 33.336117 -129.481132 50 37160ft 519kts
02-Apr-20 13:21 33.423882 -129.344437 50 37160ft 518kts
02-Apr-20 13:22 33.511533 -129.207406 50 37154ft 518kts
02-Apr-20 13:23 33.598763 -129.070524 50 37156ft 517kts
02-Apr-20 13:24 33.685885 -128.933296 50 37157ft 517kts
02-Apr-20 13:25 33.773198 -128.795248 50 37158ft 516kts
02-Apr-20 13:26 33.859708 -128.657947 50 37159ft 516kts
02-Apr-20 13:27 33.946015 -128.520450 50 37160ft 515kts
02-Apr-20 13:28 34.032279 -128.382490 50 37152ft 514kts
02-Apr-20 13:29 34.117408 -128.245853 51 37153ft 514kts
02-Apr-20 13:30 34.203003 -128.107920 51 37155ft 514kts
02-Apr-20 13:32 34.288603 -127.969455 51 37156ft 513kts
02-Apr-20 13:33 34.374016 -127.830758 51 37157ft 513kts
02-Apr-20 13:34 34.458973 -127.692268 51 37157ft 512kts
02-Apr-20 13:35 34.543429 -127.554058 51 37160ft 512kts
02-Apr-20 13:36 34.628139 -127.414892 51 37160ft 511kts
02-Apr-20 13:37 34.712032 -127.276537 52 37155ft 511kts
02-Apr-20 13:38 34.796063 -127.137405 52 37156ft 510kts
02-Apr-20 13:39 34.879683 -126.998412 52 37156ft 510kts
02-Apr-20 13:40 34.963192 -126.859055 52 37157ft 509kts
02-Apr-20 13:41 35.046505 -126.719467 52 37158ft 509kts
02-Apr-20 13:42 35.129573 -126.579748 52 37158ft 509kts
02-Apr-20 13:43 35.212650 -126.439459 51 37159ft 509kts
02-Apr-20 13:44 35.295473 -126.299041 52 37153ft 509kts
02-Apr-20 13:45 35.378207 -126.158196 52 37155ft 509kts
02-Apr-20 13:46 35.460735 -126.017143 52 37156ft 510kts
02-Apr-20 13:47 35.543236 -125.875565 52 37157ft 510kts
02-Apr-20 13:48 35.625457 -125.733892 52 37157ft 510kts
02-Apr-20 13:49 35.707400 -125.592121 52 37159ft 510kts
02-Apr-20 13:50 35.789419 -125.449636 51 37160ft 510kts
02-Apr-20 13:51 35.871224 -125.306948 52 37153ft 511kts
02-Apr-20 13:51 35.939154 -125.187998 52 37154ft 511kts
02-Apr-20 13:53 36.034358 -125.020604 52 37155ft 511kts
02-Apr-20 13:54 36.115803 -124.876756 52 37157ft 509kts
02-Apr-20 13:54 36.183545 -124.756894 50 37159ft 510kts
02-Apr-20 13:55 36.271074 -124.619431 48 37159ft 511kts
02-Apr-20 13:57 36.373294 -124.458044 48 37161ft 511kts
02-Apr-20 13:57 36.446579 -124.341859 48 37160ft 511kts
02-Apr-20 13:58 36.534214 -124.202398 48 37154ft 512kts
02-Apr-20 13:59 36.620550 -124.064408 48 35583ft 495kts
02-Apr-20 14:00 36.700817 -123.935697 47 31829ft 470kts
02-Apr-20 14:01 36.779602 -123.808782 47 29839ft 456kts
02-Apr-20 14:02 36.856016 -123.685274 47 27849ft 444kts
02-Apr-20 14:03 36.930245 -123.564862 46 25877ft 433kts
02-Apr-20 14:04 37.002532 -123.447083 46 23913ft 422kts
02-Apr-20 14:05 37.073182 -123.331579 47 21971ft 411kts
02-Apr-20 14:06 37.141859 -123.218888 47 20070ft 400kts
02-Apr-20 14:07 37.198892 -123.110689 67 19468ft 359kts
02-Apr-20 14:08 37.227324 -122.991747 67 17063ft 347kts
02-Apr-20 14:09 37.254791 -122.875452 68 15433ft 335kts
02-Apr-20 14:10 37.280000 -122.767795 69 12683ft 316kts
02-Apr-20 14:11 37.304266 -122.663722 69 11468ft 305kts
02-Apr-20 14:12 37.327682 -122.562834 69 10205ft 297kts
02-Apr-20 14:13 37.350427 -122.464417 70 8961ft 290kts
02-Apr-20 14:14 37.372387 -122.368858 70 8156ft 265kts
02-Apr-20 14:15 37.392766 -122.280222 70 7973ft 263kts
02-Apr-20 14:16 37.413712 -122.192625 70 7372ft 260kts
02-Apr-20 14:17 37.433932 -122.107840 70 6523ft 217kts
02-Apr-20 14:18 37.469732 -122.075985 322 4186ft 194kts
02-Apr-20 14:19 37.510132 -122.116878 298 2770ft 182kts
02-Apr-20 14:20 37.532661 -122.170246 297 1810ft 167kts
02-Apr-20 14:21 37.552782 -122.218226 299 1773ft 141kts
02-Apr-20 14:22 37.571265 -122.262409 298 1721ft 143kts
02-Apr-20 14:23 37.589902 -122.306389 296 984ft 141kts
02-Apr-20 14:24 37.608130 -122.349727 297 223ft 135kts
02-Apr-20 14:25 37.619527 -122.376948 297 27ft 31kts
02-Apr-20 14:26 37.619131 -122.380159 239 26ft 9kts
02-Apr-20 14:27 37.620698 -122.384481 297 26ft 17kts
02-Apr-20 14:28 37.622632 -122.389587 254 26ft 11kts
02-Apr-20 14:29 37.620484 -122.392223 208 26ft 14kts
02-Apr-20 14:30 37.618706 -122.391722 206 26ft 0kts
02-Apr-20 14:31 37.618707 -122.391722 206 26ft 0kts

Navigation Log

Ident Type
Flight plan parsing failed, navigation log unavailable